sensor_id;sensor_type;location;lat;lon;timestamp;pressure;altitude;pressure_sealevel;temperature;humidity
68988;BME280;56038;46.080;11.116;2023-06-05T00:03:14;99462.22;;;17.44;97.76
68988;BME280;56038;46.080;11.116;2023-06-05T00:08:18;99460.00;;;17.38;98.41
68988;BME280;56038;46.080;11.116;2023-06-05T00:13:20;99451.84;;;17.28;99.55
68988;BME280;56038;46.080;11.116;2023-06-05T00:18:23;99447.41;;;17.28;99.67
68988;BME280;56038;46.080;11.116;2023-06-05T00:23:25;99443.69;;;17.31;99.84
68988;BME280;56038;46.080;11.116;2023-06-05T00:28:27;99444.34;;;17.34;99.69
68988;BME280;56038;46.080;11.116;2023-06-05T00:33:30;99447.94;;;17.33;99.75
68988;BME280;56038;46.080;11.116;2023-06-05T00:38:32;99446.88;;;17.23;100.00
68988;BME280;56038;46.080;11.116;2023-06-05T00:43:34;99437.63;;;17.16;100.00
68988;BME280;56038;46.080;11.116;2023-06-05T00:48:39;99443.88;;;17.15;100.00
68988;BME280;56038;46.080;11.116;2023-06-05T00:53:42;99437.63;;;17.16;100.00
68988;BME280;56038;46.080;11.116;2023-06-05T00:58:46;99433.72;;;17.09;100.00
68988;BME280;56038;46.080;11.116;2023-06-05T01:03:50;99436.25;;;17.11;100.00
68988;BME280;56038;46.080;11.116;2023-06-05T01:08:53;99436.16;;;17.12;100.00
68988;BME280;56038;46.080;11.116;2023-06-05T01:14:02;99433.53;;;17.12;100.00
68988;BME280;56038;46.080;11.116;2023-06-05T01:19:11;99429.19;;;17.11;100.00
68988;BME280;56038;46.080;11.116;2023-06-05T01:24:16;99427.50;;;17.10;100.00
68988;BME280;56038;46.080;11.116;2023-06-05T01:29:26;99420.75;;;17.06;100.00
68988;BME280;56038;46.080;11.116;2023-06-05T01:34:30;99414.69;;;17.04;100.00
68988;BME280;56038;46.080;11.116;2023-06-05T01:39:34;99411.31;;;17.02;100.00
68988;BME280;56038;46.080;11.116;2023-06-05T01:44:36;99401.81;;;16.99;100.00
68988;BME280;56038;46.080;11.116;2023-06-05T01:49:37;99395.69;;;16.99;100.00
68988;BME280;56038;46.080;11.116;2023-06-05T01:54:41;99391.25;;;16.99;100.00
68988;BME280;56038;46.080;11.116;2023-06-05T01:59:45;99390.50;;;16.97;100.00
68988;BME280;56038;46.080;11.116;2023-06-05T02:04:47;99385.44;;;16.94;100.00
68988;BME280;56038;46.080;11.116;2023-06-05T02:09:50;99393.56;;;16.91;100.00
68988;BME280;56038;46.080;11.116;2023-06-05T02:14:51;99392.72;;;16.91;100.00
68988;BME280;56038;46.080;11.116;2023-06-05T02:19:53;99384.69;;;16.92;100.00
68988;BME280;56038;46.080;11.116;2023-06-05T02:24:57;99398.84;;;16.91;100.00
68988;BME280;56038;46.080;11.116;2023-06-05T02:29:58;99413.97;;;16.75;100.00
68988;BME280;56038;46.080;11.116;2023-06-05T02:35:01;99420.28;;;16.72;100.00
68988;BME280;56038;46.080;11.116;2023-06-05T02:40:07;99412.72;;;16.81;100.00
68988;BME280;56038;46.080;11.116;2023-06-05T02:45:09;99414.94;;;16.87;100.00
68988;BME280;56038;46.080;11.116;2023-06-05T02:50:11;99406.88;;;16.90;100.00
68988;BME280;56038;46.080;11.116;2023-06-05T02:55:14;99407.41;;;16.95;100.00
68988;BME280;56038;46.080;11.116;2023-06-05T03:00:17;99405.72;;;16.94;100.00
68988;BME280;56038;46.080;11.116;2023-06-05T03:05:19;99398.59;;;16.82;100.00
68988;BME280;56038;46.080;11.116;2023-06-05T03:10:26;99393.31;;;16.82;100.00
68988;BME280;56038;46.080;11.116;2023-06-05T03:15:28;99395.75;;;16.85;100.00
68988;BME280;56038;46.080;11.116;2023-06-05T03:20:30;99389.09;;;16.79;100.00
68988;BME280;56038;46.080;11.116;2023-06-05T03:25:33;99383.91;;;16.77;100.00
68988;BME280;56038;46.080;11.116;2023-06-05T03:30:35;99391.81;;;16.77;100.00
68988;BME280;56038;46.080;11.116;2023-06-05T03:35:37;99390.41;;;16.72;100.00
68988;BME280;56038;46.080;11.116;2023-06-05T03:40:42;99384.66;;;16.65;100.00
68988;BME280;56038;46.080;11.116;2023-06-05T03:45:44;99385.50;;;16.66;100.00
68988;BME280;56038;46.080;11.116;2023-06-05T03:50:47;99388.09;;;16.53;100.00
68988;BME280;56038;46.080;11.116;2023-06-05T03:55:53;99382.91;;;16.52;100.00
68988;BME280;56038;46.080;11.116;2023-06-05T04:00:55;99379.22;;;16.54;100.00
68988;BME280;56038;46.080;11.116;2023-06-05T04:05:56;99381.38;;;16.62;100.00
68988;BME280;56038;46.080;11.116;2023-06-05T04:11:00;99379.31;;;16.67;100.00
68988;BME280;56038;46.080;11.116;2023-06-05T04:16:01;99370.09;;;16.74;100.00
68988;BME280;56038;46.080;11.116;2023-06-05T04:21:04;99373.56;;;16.74;100.00
68988;BME280;56038;46.080;11.116;2023-06-05T04:26:07;99371.78;;;16.75;100.00
68988;BME280;56038;46.080;11.116;2023-06-05T04:31:08;99374.22;;;16.78;100.00
68988;BME280;56038;46.080;11.116;2023-06-05T04:36:10;99381.91;;;16.81;100.00
68988;BME280;56038;46.080;11.116;2023-06-05T04:41:13;99375.59;;;16.84;100.00
68988;BME280;56038;46.080;11.116;2023-06-05T04:46:15;99380.47;;;16.90;100.00
68988;BME280;56038;46.080;11.116;2023-06-05T04:51:17;99373.09;;;16.95;100.00
68988;BME280;56038;46.080;11.116;2023-06-05T04:56:21;99362.75;;;16.92;100.00
68988;BME280;56038;46.080;11.116;2023-06-05T05:01:22;99360.22;;;16.90;100.00
68988;BME280;56038;46.080;11.116;2023-06-05T05:06:24;99366.34;;;16.91;100.00
68988;BME280;56038;46.080;11.116;2023-06-05T05:11:27;99364.88;;;16.99;100.00
68988;BME280;56038;46.080;11.116;2023-06-05T05:16:29;99359.81;;;17.09;100.00
68988;BME280;56038;46.080;11.116;2023-06-05T05:21:31;99353.28;;;17.15;100.00
68988;BME280;56038;46.080;11.116;2023-06-05T05:26:34;99353.91;;;17.18;100.00
68988;BME280;56038;46.080;11.116;2023-06-05T05:31:36;99358.25;;;17.19;100.00
68988;BME280;56038;46.080;11.116;2023-06-05T05:36:38;99360.34;;;17.14;100.00
68988;BME280;56038;46.080;11.116;2023-06-05T05:41:41;99363.53;;;17.19;100.00
68988;BME280;56038;46.080;11.116;2023-06-05T05:46:45;99362.50;;;17.22;100.00
68988;BME280;56038;46.080;11.116;2023-06-05T05:51:47;99362.38;;;17.23;100.00
68988;BME280;56038;46.080;11.116;2023-06-05T05:56:50;99367.66;;;17.23;100.00
68988;BME280;56038;46.080;11.116;2023-06-05T06:01:53;99367.56;;;17.25;100.00
68988;BME280;56038;46.080;11.116;2023-06-05T06:06:54;99363.03;;;17.40;100.00
68988;BME280;56038;46.080;11.116;2023-06-05T06:11:58;99365.97;;;17.48;100.00
68988;BME280;56038;46.080;11.116;2023-06-05T06:17:03;99362.28;;;17.50;100.00
68988;BME280;56038;46.080;11.116;2023-06-05T06:22:10;99364.63;;;17.55;100.00
68988;BME280;56038;46.080;11.116;2023-06-05T06:27:14;99360.31;;;17.54;100.00
68988;BME280;56038;46.080;11.116;2023-06-05T06:32:16;99361.56;;;17.61;100.00
68988;BME280;56038;46.080;11.116;2023-06-05T06:37:18;99370.53;;;17.58;100.00
68988;BME280;56038;46.080;11.116;2023-06-05T06:42:22;99374.13;;;17.57;100.00
68988;BME280;56038;46.080;11.116;2023-06-05T06:47:24;99371.63;;;17.69;100.00
68988;BME280;56038;46.080;11.116;2023-06-05T06:52:26;99377.94;;;17.79;100.00
68988;BME280;56038;46.080;11.116;2023-06-05T06:57:29;99380.81;;;17.88;100.00
68988;BME280;56038;46.080;11.116;2023-06-05T07:02:31;99377.19;;;18.02;100.00
68988;BME280;56038;46.080;11.116;2023-06-05T07:07:32;99373.88;;;18.24;100.00
68988;BME280;56038;46.080;11.116;2023-06-05T07:12:36;99379.66;;;18.29;99.65
68988;BME280;56038;46.080;11.116;2023-06-05T07:17:37;99383.06;;;18.31;99.84
68988;BME280;56038;46.080;11.116;2023-06-05T07:22:42;99377.25;;;18.26;99.59
68988;BME280;56038;46.080;11.116;2023-06-05T07:27:45;99375.88;;;18.20;100.00
68988;BME280;56038;46.080;11.116;2023-06-05T07:32:47;99369.03;;;18.18;100.00
68988;BME280;56038;46.080;11.116;2023-06-05T07:37:49;99377.97;;;18.28;100.00
68988;BME280;56038;46.080;11.116;2023-06-05T07:42:52;99383.00;;;18.44;100.00
68988;BME280;56038;46.080;11.116;2023-06-05T07:47:54;99381.19;;;18.44;100.00
68988;BME280;56038;46.080;11.116;2023-06-05T07:52:55;99375.13;;;18.68;99.07
68988;BME280;56038;46.080;11.116;2023-06-05T07:57:59;99373.94;;;18.72;97.62
68988;BME280;56038;46.080;11.116;2023-06-05T08:03:01;99370.22;;;18.62;97.86
68988;BME280;56038;46.080;11.116;2023-06-05T08:08:03;99382.47;;;18.51;98.94
68988;BME280;56038;46.080;11.116;2023-06-05T08:13:07;99380.03;;;18.48;99.02
68988;BME280;56038;46.080;11.116;2023-06-05T08:18:09;99376.47;;;18.37;98.69
68988;BME280;56038;46.080;11.116;2023-06-05T08:23:10;99379.03;;;18.25;98.92
68988;BME280;56038;46.080;11.116;2023-06-05T08:28:14;99376.50;;;18.24;98.97
68988;BME280;56038;46.080;11.116;2023-06-05T08:33:16;99372.25;;;18.34;99.30
68988;BME280;56038;46.080;11.116;2023-06-05T08:38:18;99370.34;;;18.60;98.53
68988;BME280;56038;46.080;11.116;2023-06-05T08:43:21;99374.84;;;18.83;96.85
68988;BME280;56038;46.080;11.116;2023-06-05T08:48:24;99378.75;;;19.02;96.12
68988;BME280;56038;46.080;11.116;2023-06-05T08:53:28;99373.03;;;19.19;94.85
68988;BME280;56038;46.080;11.116;2023-06-05T08:58:36;99376.00;;;19.50;94.39
68988;BME280;56038;46.080;11.116;2023-06-05T09:03:38;99371.22;;;19.55;93.37
68988;BME280;56038;46.080;11.116;2023-06-05T09:08:39;99366.66;;;19.68;92.91
68988;BME280;56038;46.080;11.116;2023-06-05T09:13:46;99365.97;;;19.77;92.45
68988;BME280;56038;46.080;11.116;2023-06-05T09:18:52;99362.34;;;20.23;91.26
68988;BME280;56038;46.080;11.116;2023-06-05T09:24:11;99361.59;;;21.07;87.60
68988;BME280;56038;46.080;11.116;2023-06-05T09:29:19;99363.06;;;21.53;85.16
68988;BME280;56038;46.080;11.116;2023-06-05T09:34:22;99355.50;;;21.79;84.07
68988;BME280;56038;46.080;11.116;2023-06-05T09:39:26;99343.91;;;22.10;82.75
68988;BME280;56038;46.080;11.116;2023-06-05T09:44:30;99345.78;;;22.29;81.67
68988;BME280;56038;46.080;11.116;2023-06-05T09:49:46;99341.59;;;22.46;80.25
68988;BME280;56038;46.080;11.116;2023-06-05T09:54:48;99335.13;;;22.39;74.35
68988;BME280;56038;46.080;11.116;2023-06-05T09:59:52;99332.47;;;22.29;80.43
68988;BME280;56038;46.080;11.116;2023-06-05T10:04:56;99324.81;;;22.05;75.81
68988;BME280;56038;46.080;11.116;2023-06-05T10:09:59;99318.75;;;22.53;79.46
68988;BME280;56038;46.080;11.116;2023-06-05T10:15:03;99317.00;;;22.83;78.21
68988;BME280;56038;46.080;11.116;2023-06-05T10:20:09;99318.38;;;23.06;77.12
68988;BME280;56038;46.080;11.116;2023-06-05T10:25:13;99317.81;;;23.22;76.85
68988;BME280;56038;46.080;11.116;2023-06-05T10:35:59;99324.38;;;23.27;74.79
68988;BME280;56038;46.080;11.116;2023-06-05T10:41:05;99310.59;;;23.42;75.29
68988;BME280;56038;46.080;11.116;2023-06-05T10:46:29;99315.66;;;23.35;73.05
68988;BME280;56038;46.080;11.116;2023-06-05T10:51:32;99316.97;;;23.02;74.71
68988;BME280;56038;46.080;11.116;2023-06-05T10:56:54;99309.25;;;22.99;71.64
68988;BME280;56038;46.080;11.116;2023-06-05T11:02:25;99313.59;;;23.00;73.23
68988;BME280;56038;46.080;11.116;2023-06-05T11:07:28;99314.31;;;23.12;74.35
68988;BME280;56038;46.080;11.116;2023-06-05T11:12:57;99299.41;;;23.28;73.04
68988;BME280;56038;46.080;11.116;2023-06-05T11:29:24;99273.75;;;24.19;73.84
68988;BME280;56038;46.080;11.116;2023-06-05T11:34:28;99278.19;;;24.29;72.37
68988;BME280;56038;46.080;11.116;2023-06-05T11:39:42;99279.47;;;24.25;69.13
68988;BME280;56038;46.080;11.116;2023-06-05T11:44:44;99284.25;;;24.03;72.42
68988;BME280;56038;46.080;11.116;2023-06-05T11:49:47;99272.25;;;24.17;71.75
68988;BME280;56038;46.080;11.116;2023-06-05T11:54:49;99267.06;;;24.15;71.29
68988;BME280;56038;46.080;11.116;2023-06-05T12:00:07;99275.34;;;24.12;71.31
68988;BME280;56038;46.080;11.116;2023-06-05T12:05:11;99267.16;;;23.96;70.47
68988;BME280;56038;46.080;11.116;2023-06-05T12:10:13;99274.50;;;23.57;72.03
68988;BME280;56038;46.080;11.116;2023-06-05T12:15:15;99269.00;;;23.68;71.38
68988;BME280;56038;46.080;11.116;2023-06-05T12:20:19;99266.44;;;23.67;71.31
68988;BME280;56038;46.080;11.116;2023-06-05T12:25:21;99261.84;;;23.69;67.33
68988;BME280;56038;46.080;11.116;2023-06-05T12:30:23;99261.59;;;23.89;71.02
68988;BME280;56038;46.080;11.116;2023-06-05T12:35:26;99256.13;;;23.54;71.20
68988;BME280;56038;46.080;11.116;2023-06-05T12:40:28;99254.25;;;23.27;71.40
68988;BME280;56038;46.080;11.116;2023-06-05T12:45:30;99244.09;;;22.84;72.99
68988;BME280;56038;46.080;11.116;2023-06-05T12:50:35;99242.50;;;23.00;72.22
68988;BME280;56038;46.080;11.116;2023-06-05T12:55:37;99235.97;;;22.76;73.16
68988;BME280;56038;46.080;11.116;2023-06-05T13:00:39;99232.84;;;22.99;73.36
68988;BME280;56038;46.080;11.116;2023-06-05T13:05:43;99229.94;;;22.83;73.07
68988;BME280;56038;46.080;11.116;2023-06-05T13:10:45;99229.38;;;22.60;74.27
68988;BME280;56038;46.080;11.116;2023-06-05T13:15:46;99232.47;;;22.27;75.10
68988;BME280;56038;46.080;11.116;2023-06-05T13:20:50;99232.75;;;22.43;76.22
68988;BME280;56038;46.080;11.116;2023-06-05T13:25:52;99230.50;;;22.09;76.68
68988;BME280;56038;46.080;11.116;2023-06-05T13:30:53;99229.84;;;21.16;78.71
68988;BME280;56038;46.080;11.116;2023-06-05T13:35:57;99228.69;;;20.67;80.38
68988;BME280;56038;46.080;11.116;2023-06-05T13:40:59;99229.78;;;20.44;80.61
68988;BME280;56038;46.080;11.116;2023-06-05T13:46:01;99228.28;;;20.51;79.92
68988;BME280;56038;46.080;11.116;2023-06-05T13:51:05;99230.25;;;20.38;79.43
68988;BME280;56038;46.080;11.116;2023-06-05T13:56:07;99224.72;;;20.29;80.53
68988;BME280;56038;46.080;11.116;2023-06-05T14:01:08;99220.41;;;20.17;80.51
68988;BME280;56038;46.080;11.116;2023-06-05T14:06:12;99216.56;;;20.21;80.15
68988;BME280;56038;46.080;11.116;2023-06-05T14:11:13;99205.03;;;20.11;80.28
68988;BME280;56038;46.080;11.116;2023-06-05T14:16:15;99209.69;;;20.19;79.77
68988;BME280;56038;46.080;11.116;2023-06-05T14:21:19;99207.94;;;20.08;80.31
68988;BME280;56038;46.080;11.116;2023-06-05T14:26:21;99212.28;;;20.09;79.81
68988;BME280;56038;46.080;11.116;2023-06-05T14:31:23;99211.13;;;19.80;80.64
68988;BME280;56038;46.080;11.116;2023-06-05T14:36:27;99208.94;;;19.96;79.80
68988;BME280;56038;46.080;11.116;2023-06-05T14:41:29;99202.81;;;19.84;80.22
68988;BME280;56038;46.080;11.116;2023-06-05T14:46:31;99197.88;;;19.80;80.82
68988;BME280;56038;46.080;11.116;2023-06-05T14:51:34;99195.50;;;19.77;81.48
68988;BME280;56038;46.080;11.116;2023-06-05T14:56:36;99203.56;;;19.75;82.69
68988;BME280;56038;46.080;11.116;2023-06-05T15:01:38;99203.56;;;19.75;82.78
68988;BME280;56038;46.080;11.116;2023-06-05T15:06:41;99209.59;;;19.43;86.05
68988;BME280;56038;46.080;11.116;2023-06-05T15:11:43;99210.41;;;19.22;89.49
68988;BME280;56038;46.080;11.116;2023-06-05T15:16:45;99213.66;;;18.80;90.86
68988;BME280;56038;46.080;11.116;2023-06-05T15:21:48;99215.94;;;18.50;92.71
68988;BME280;56038;46.080;11.116;2023-06-05T15:26:51;99215.22;;;18.48;96.02
68988;BME280;56038;46.080;11.116;2023-06-05T15:31:53;99218.06;;;18.45;96.07
68988;BME280;56038;46.080;11.116;2023-06-05T15:42:07;99212.88;;;18.32;97.20
68988;BME280;56038;46.080;11.116;2023-06-05T15:47:09;99203.69;;;18.25;98.96
68988;BME280;56038;46.080;11.116;2023-06-05T15:52:10;99204.69;;;18.11;98.60
68988;BME280;56038;46.080;11.116;2023-06-05T15:57:14;99197.63;;;18.12;99.80
68988;BME280;56038;46.080;11.116;2023-06-05T16:02:17;99197.78;;;18.21;98.82
68988;BME280;56038;46.080;11.116;2023-06-05T16:07:19;99206.44;;;18.23;99.96
68988;BME280;56038;46.080;11.116;2023-06-05T16:12:23;99200.59;;;18.07;100.00
68988;BME280;56038;46.080;11.116;2023-06-05T16:17:25;99203.25;;;18.31;100.00
68988;BME280;56038;46.080;11.116;2023-06-05T16:22:28;99211.66;;;18.36;100.00
68988;BME280;56038;46.080;11.116;2023-06-05T16:27:32;99202.34;;;18.54;99.52
68988;BME280;56038;46.080;11.116;2023-06-05T16:32:34;99214.69;;;18.67;97.96
68988;BME280;56038;46.080;11.116;2023-06-05T16:37:37;99215.28;;;18.70;98.41
68988;BME280;56038;46.080;11.116;2023-06-05T16:42:40;99212.81;;;18.80;98.25
68988;BME280;56038;46.080;11.116;2023-06-05T16:47:42;99216.28;;;18.92;97.71
68988;BME280;56038;46.080;11.116;2023-06-05T16:52:44;99213.31;;;18.96;98.09
68988;BME280;56038;46.080;11.116;2023-06-05T16:57:47;99207.16;;;19.07;97.40
68988;BME280;56038;46.080;11.116;2023-06-05T17:02:49;99210.19;;;19.13;97.42
68988;BME280;56038;46.080;11.116;2023-06-05T17:07:51;99216.94;;;19.18;97.44
68988;BME280;56038;46.080;11.116;2023-06-05T17:12:54;99215.38;;;19.15;96.89
68988;BME280;56038;46.080;11.116;2023-06-05T17:17:56;99217.66;;;19.20;96.91
68988;BME280;56038;46.080;11.116;2023-06-05T17:22:57;99211.16;;;19.12;98.15
68988;BME280;56038;46.080;11.116;2023-06-05T17:28:01;99209.34;;;19.13;98.23
68988;BME280;56038;46.080;11.116;2023-06-05T17:33:03;99214.78;;;19.11;98.49
68988;BME280;56038;46.080;11.116;2023-06-05T17:38:06;99216.34;;;19.14;98.10
68988;BME280;56038;46.080;11.116;2023-06-05T17:43:13;99217.63;;;19.08;98.75
68988;BME280;56038;46.080;11.116;2023-06-05T17:48:15;99219.69;;;19.05;98.86
68988;BME280;56038;46.080;11.116;2023-06-05T17:53:17;99230.16;;;18.95;99.57
68988;BME280;56038;46.080;11.116;2023-06-05T17:58:23;99232.41;;;18.89;100.00
68988;BME280;56038;46.080;11.116;2023-06-05T18:03:25;99230.94;;;18.73;99.61
68988;BME280;56038;46.080;11.116;2023-06-05T18:08:29;99230.38;;;18.57;99.82
68988;BME280;56038;46.080;11.116;2023-06-05T18:13:32;99236.00;;;18.52;99.44
68988;BME280;56038;46.080;11.116;2023-06-05T18:18:34;99235.47;;;18.36;99.74
68988;BME280;56038;46.080;11.116;2023-06-05T18:23:38;99231.88;;;18.37;99.78
68988;BME280;56038;46.080;11.116;2023-06-05T18:28:41;99239.06;;;18.35;100.00
68988;BME280;56038;46.080;11.116;2023-06-05T18:33:43;99237.41;;;18.34;100.00
68988;BME280;56038;46.080;11.116;2023-06-05T18:38:45;99238.06;;;18.25;100.00
68988;BME280;56038;46.080;11.116;2023-06-05T18:43:48;99232.94;;;18.11;99.47
68988;BME280;56038;46.080;11.116;2023-06-05T18:48:50;99234.84;;;18.09;100.00
68988;BME280;56038;46.080;11.116;2023-06-05T18:53:52;99231.72;;;18.04;100.00
68988;BME280;56038;46.080;11.116;2023-06-05T18:58:55;99238.06;;;18.01;100.00
68988;BME280;56038;46.080;11.116;2023-06-05T19:03:57;99238.59;;;17.93;100.00
68988;BME280;56038;46.080;11.116;2023-06-05T19:08:58;99240.97;;;17.85;100.00
68988;BME280;56038;46.080;11.116;2023-06-05T19:14:02;99245.53;;;17.83;100.00
68988;BME280;56038;46.080;11.116;2023-06-05T19:19:03;99249.88;;;17.84;100.00
68988;BME280;56038;46.080;11.116;2023-06-05T19:24:05;99253.25;;;17.74;100.00
68988;BME280;56038;46.080;11.116;2023-06-05T19:29:09;99260.94;;;17.64;100.00
68988;BME280;56038;46.080;11.116;2023-06-05T19:34:11;99270.38;;;17.55;100.00
68988;BME280;56038;46.080;11.116;2023-06-05T19:39:15;99276.63;;;17.54;100.00
68988;BME280;56038;46.080;11.116;2023-06-05T19:44:19;99287.09;;;17.56;100.00
68988;BME280;56038;46.080;11.116;2023-06-05T19:49:20;99281.25;;;17.51;100.00
68988;BME280;56038;46.080;11.116;2023-06-05T19:54:25;99287.81;;;17.58;100.00
68988;BME280;56038;46.080;11.116;2023-06-05T19:59:29;99295.41;;;17.50;100.00
68988;BME280;56038;46.080;11.116;2023-06-05T20:04:31;99297.53;;;17.45;100.00
68988;BME280;56038;46.080;11.116;2023-06-05T20:09:33;99303.25;;;17.39;100.00
68988;BME280;56038;46.080;11.116;2023-06-05T20:14:36;99302.59;;;17.35;100.00
68988;BME280;56038;46.080;11.116;2023-06-05T20:19:38;99303.66;;;17.32;100.00
68988;BME280;56038;46.080;11.116;2023-06-05T20:24:40;99298.72;;;17.28;100.00
68988;BME280;56038;46.080;11.116;2023-06-05T20:29:43;99303.88;;;17.29;100.00
68988;BME280;56038;46.080;11.116;2023-06-05T20:34:45;99302.41;;;17.25;100.00
68988;BME280;56038;46.080;11.116;2023-06-05T20:39:50;99303.88;;;17.29;100.00
68988;BME280;56038;46.080;11.116;2023-06-05T20:44:59;99309.06;;;17.31;100.00
68988;BME280;56038;46.080;11.116;2023-06-05T20:50:11;99305.56;;;17.30;100.00
68988;BME280;56038;46.080;11.116;2023-06-05T20:55:14;99306.41;;;17.31;100.00
68988;BME280;56038;46.080;11.116;2023-06-05T21:00:18;99299.66;;;17.27;100.00
68988;BME280;56038;46.080;11.116;2023-06-05T21:05:39;99306.00;;;17.24;100.00
68988;BME280;56038;46.080;11.116;2023-06-05T21:10:41;99310.53;;;17.22;100.00
68988;BME280;56038;46.080;11.116;2023-06-05T21:15:44;99307.88;;;17.10;100.00
68988;BME280;56038;46.080;11.116;2023-06-05T21:20:47;99311.06;;;17.15;100.00
68988;BME280;56038;46.080;11.116;2023-06-05T21:25:54;99323.41;;;17.14;100.00
68988;BME280;56038;46.080;11.116;2023-06-05T21:30:59;99306.50;;;17.04;100.00
68988;BME280;56038;46.080;11.116;2023-06-05T21:36:07;99310.06;;;17.03;100.00
68988;BME280;56038;46.080;11.116;2023-06-05T21:41:09;99312.53;;;17.06;100.00
68988;BME280;56038;46.080;11.116;2023-06-05T21:46:12;99311.25;;;17.12;100.00
68988;BME280;56038;46.080;11.116;2023-06-05T21:51:13;99314.63;;;17.14;100.00
68988;BME280;56038;46.080;11.116;2023-06-05T21:56:15;99318.22;;;17.13;100.00
68988;BME280;56038;46.080;11.116;2023-06-05T22:01:20;99316.53;;;17.12;100.00
68988;BME280;56038;46.080;11.116;2023-06-05T22:06:21;99312.94;;;17.13;100.00
68988;BME280;56038;46.080;11.116;2023-06-05T22:11:25;99308.94;;;17.07;100.00
68988;BME280;56038;46.080;11.116;2023-06-05T22:16:29;99311.59;;;17.07;100.00
68988;BME280;56038;46.080;11.116;2023-06-05T22:21:38;99311.59;;;17.07;100.00
68988;BME280;56038;46.080;11.116;2023-06-05T22:26:41;99305.56;;;17.05;100.00
68988;BME280;56038;46.080;11.116;2023-06-05T22:31:45;99303.22;;;17.00;100.00
68988;BME280;56038;46.080;11.116;2023-06-05T22:36:47;99306.50;;;16.91;100.00
68988;BME280;56038;46.080;11.116;2023-06-05T22:41:49;99299.28;;;16.81;100.00
68988;BME280;56038;46.080;11.116;2023-06-05T22:46:52;99298.34;;;16.82;100.00
68988;BME280;56038;46.080;11.116;2023-06-05T22:51:54;99294.66;;;16.84;100.00
68988;BME280;56038;46.080;11.116;2023-06-05T22:56:57;99298.47;;;16.93;100.00
68988;BME280;56038;46.080;11.116;2023-06-05T23:02:01;99300.28;;;16.92;100.00
68988;BME280;56038;46.080;11.116;2023-06-05T23:07:03;99296.88;;;16.90;100.00
68988;BME280;56038;46.080;11.116;2023-06-05T23:12:05;99298.38;;;16.94;100.00
68988;BME280;56038;46.080;11.116;2023-06-05T23:17:09;99295.72;;;16.94;100.00
68988;BME280;56038;46.080;11.116;2023-06-05T23:22:10;99289.41;;;16.97;100.00
68988;BME280;56038;46.080;11.116;2023-06-05T23:27:12;99285.38;;;16.91;100.00
68988;BME280;56038;46.080;11.116;2023-06-05T23:32:16;99277.47;;;16.91;100.00
68988;BME280;56038;46.080;11.116;2023-06-05T23:37:17;99289.47;;;16.83;100.00
68988;BME280;56038;46.080;11.116;2023-06-05T23:42:20;99289.09;;;16.89;100.00
68988;BME280;56038;46.080;11.116;2023-06-05T23:47:23;99288.66;;;16.95;100.00
68988;BME280;56038;46.080;11.116;2023-06-05T23:52:25;99288.66;;;16.95;100.00
68988;BME280;56038;46.080;11.116;2023-06-05T23:57:27;99292.25;;;16.94;100.00
